Time;durP1;ratioP1;P1;durP2;ratioP2;P2;SDS_P1;SDS_P2;PMS_P1;PMS_P2;Temp;Humidity;BMP_temperature;BMP_pressure;BME280_temperature;BME280_humidity;BME280_pressure;Samples;Min_cycle;Max_cycle;Signal;HPM_P1;HPM_P2
2022/07/01 00:00:21;;;;;;;11.90;10.80;;;;;;;;;;5059137;28;20591;-52
2022/07/01 00:02:47;;;;;;;11.20;10.13;;;;;;;;;;5057430;28;20617;-52
2022/07/01 00:05:14;;;;;;;13.38;11.30;;;;;;;;;;5052234;28;20238;-51
2022/07/01 00:07:40;;;;;;;10.52;9.60;;;;;;;;;;5049935;28;20236;-53
2022/07/01 00:10:07;;;;;;;13.48;12.18;;;;;;;;;;5066348;28;20223;-52
2022/07/01 00:12:33;;;;;;;13.32;12.23;;;;;;;;;;5058563;28;20234;-52
2022/07/01 00:15:00;;;;;;;12.63;11.38;;;;;;;;;;5057225;28;20238;-53
2022/07/01 00:17:27;;;;;;;11.75;10.65;;;;;;;;;;5062723;28;20715;-52
2022/07/01 00:19:54;;;;;;;12.55;11.35;;;;;;;;;;5053375;28;21335;-52
2022/07/01 00:22:20;;;;;;;13.63;12.32;;;;;;;;;;5054303;28;20232;-51
2022/07/01 00:24:48;;;;;;;13.50;12.23;;;;;;;;;;5059981;28;20228;-52
2022/07/01 00:27:14;;;;;;;13.35;12.15;;;;;;;;;;5053398;28;20246;-52
2022/07/01 00:29:41;;;;;;;13.77;12.40;;;;;;;;;;5058075;28;20236;-53
2022/07/01 00:32:07;;;;;;;12.63;11.45;;;;;;;;;;5062992;28;20227;-53
2022/07/01 00:34:35;;;;;;;13.90;12.63;;;;;;;;;;5058110;28;20257;-53
2022/07/01 00:37:01;;;;;;;15.00;13.50;;;;;;;;;;5048275;28;20231;-51
2022/07/01 00:39:30;;;;;;;14.98;13.65;;;;;;;;;;5056243;28;20231;-52
2022/07/01 00:41:59;;;;;;;13.43;12.23;;;;;;;;;;5047929;28;20239;-53
2022/07/01 00:44:26;;;;;;;15.70;14.30;;;;;;;;;;5047125;28;20232;-53
2022/07/01 00:46:52;;;;;;;13.68;12.50;;;;;;;;;;5053144;28;20243;-53
2022/07/01 00:49:19;;;;;;;14.65;13.35;;;;;;;;;;5061236;28;20257;-52
2022/07/01 00:51:46;;;;;;;14.40;13.10;;;;;;;;;;5054132;28;20238;-52
2022/07/01 00:54:13;;;;;;;13.88;12.65;;;;;;;;;;5065208;28;20245;-51
2022/07/01 00:56:39;;;;;;;15.20;13.90;;;;;;;;;;5051810;28;20235;-52
2022/07/01 00:59:06;;;;;;;14.70;13.32;;;;;;;;;;5062610;28;20250;-51
2022/07/01 01:01:32;;;;;;;16.00;14.40;;;;;;;;;;5052257;28;20246;-52
2022/07/01 01:03:59;;;;;;;15.20;13.75;;;;;;;;;;5058307;28;20230;-51
2022/07/01 01:06:25;;;;;;;15.98;14.32;;;;;;;;;;5045463;28;20248;-51
2022/07/01 01:08:53;;;;;;;16.65;15.05;;;;;;;;;;5063623;28;20243;-53
2022/07/01 01:11:20;;;;;;;16.75;15.02;;;;;;;;;;5053878;28;20710;-51
2022/07/01 01:13:46;;;;;;;15.88;14.48;;;;;;;;;;5055982;28;20298;-52
2022/07/01 01:16:16;;;;;;;16.75;15.27;;;;;;;;;;5056699;28;20318;-53
2022/07/01 01:18:43;;;;;;;15.75;14.35;;;;;;;;;;5046147;28;20737;-53
2022/07/01 01:21:10;;;;;;;15.43;14.07;;;;;;;;;;5049518;28;20251;-53
2022/07/01 01:23:37;;;;;;;17.92;16.02;;;;;;;;;;5064779;28;20239;-51
2022/07/01 01:26:03;;;;;;;14.52;13.20;;;;;;;;;;5056194;28;20250;-51
2022/07/01 01:28:30;;;;;;;16.92;15.18;;;;;;;;;;5056991;28;20231;-53
2022/07/01 01:30:56;;;;;;;16.08;14.65;;;;;;;;;;5049033;28;20235;-51
2022/07/01 01:33:23;;;;;;;16.63;15.02;;;;;;;;;;5063742;28;20238;-51
2022/07/01 01:35:49;;;;;;;15.23;13.68;;;;;;;;;;5059525;28;20764;-53
2022/07/01 01:38:16;;;;;;;18.17;16.48;;;;;;;;;;5044518;28;20234;-51
2022/07/01 01:40:44;;;;;;;18.63;16.85;;;;;;;;;;5056822;28;20721;-52
2022/07/01 01:43:10;;;;;;;16.15;14.65;;;;;;;;;;5054621;28;20237;-51
2022/07/01 01:45:36;;;;;;;18.30;16.60;;;;;;;;;;5053872;28;20244;-52
2022/07/01 01:48:03;;;;;;;17.92;16.27;;;;;;;;;;5062987;28;20231;-52
2022/07/01 01:50:29;;;;;;;19.13;17.33;;;;;;;;;;5056773;28;20235;-52
2022/07/01 01:52:56;;;;;;;20.00;16.70;;;;;;;;;;5049941;28;20717;-52
2022/07/01 01:55:23;;;;;;;17.92;16.33;;;;;;;;;;5053251;28;20594;-52
2022/07/01 01:57:50;;;;;;;17.80;15.98;;;;;;;;;;5053918;28;20254;-52
2022/07/01 02:00:17;;;;;;;19.45;17.67;;;;;;;;;;5061826;28;20227;-52
2022/07/01 02:02:43;;;;;;;19.08;17.42;;;;;;;;;;5057595;28;20232;-52
2022/07/01 02:05:11;;;;;;;16.92;15.40;;;;;;;;;;5054425;28;20235;-52
2022/07/01 02:07:37;;;;;;;19.92;18.13;;;;;;;;;;5058836;28;20327;-52
2022/07/01 02:10:04;;;;;;;18.45;16.58;;;;;;;;;;5063454;28;20227;-51
2022/07/01 02:12:32;;;;;;;19.85;18.13;;;;;;;;;;5056626;28;20241;-51
2022/07/01 02:14:58;;;;;;;21.60;19.38;;;;;;;;;;5058947;28;20350;-54
2022/07/01 02:17:25;;;;;;;20.05;17.95;;;;;;;;;;5050378;28;20722;-51
2022/07/01 02:19:52;;;;;;;18.77;17.08;;;;;;;;;;5063878;28;20312;-52
2022/07/01 02:22:18;;;;;;;19.48;17.63;;;;;;;;;;5055746;28;20310;-52
2022/07/01 02:24:47;;;;;;;21.05;18.95;;;;;;;;;;5064758;28;20239;-52
2022/07/01 02:27:14;;;;;;;18.30;16.73;;;;;;;;;;5063815;28;20240;-54
2022/07/01 02:29:42;;;;;;;18.75;16.60;;;;;;;;;;5067215;28;20239;-53
2022/07/01 02:32:08;;;;;;;20.08;17.98;;;;;;;;;;5062109;28;20234;-52
2022/07/01 02:34:35;;;;;;;18.08;16.42;;;;;;;;;;5062204;28;20251;-53
2022/07/01 02:37:01;;;;;;;19.08;17.20;;;;;;;;;;5060435;28;20352;-51
2022/07/01 02:39:27;;;;;;;19.58;17.70;;;;;;;;;;5061096;28;20715;-53
2022/07/01 02:44:34;;;;;;;20.23;18.33;;;;;;;;;;5048580;28;20239;-52
2022/07/01 02:47:02;;;;;;;21.92;19.63;;;;;;;;;;5050933;28;20260;-54
2022/07/01 02:49:28;;;;;;;20.80;18.65;;;;;;;;;;5068079;28;20227;-51
2022/07/01 02:51:55;;;;;;;20.90;18.92;;;;;;;;;;5061653;28;20397;-52
2022/07/01 02:54:21;;;;;;;19.83;17.95;;;;;;;;;;5065835;28;20231;-51
2022/07/01 02:56:48;;;;;;;19.92;18.02;;;;;;;;;;5058097;28;20232;-52
2022/07/01 02:59:14;;;;;;;20.17;18.23;;;;;;;;;;5072094;28;20227;-51
2022/07/01 03:01:40;;;;;;;17.40;15.90;;;;;;;;;;5053613;28;20235;-54
2022/07/01 03:04:08;;;;;;;20.50;18.58;;;;;;;;;;5058472;28;20234;-53
2022/07/01 03:06:34;;;;;;;18.23;16.40;;;;;;;;;;5063028;28;20250;-52
2022/07/01 03:09:01;;;;;;;19.30;17.48;;;;;;;;;;5055172;28;20682;-52
2022/07/01 03:11:27;;;;;;;20.10;18.17;;;;;;;;;;5065243;28;20250;-54
2022/07/01 03:13:53;;;;;;;20.88;18.98;;;;;;;;;;5065444;28;20250;-53
2022/07/01 03:16:20;;;;;;;21.40;19.52;;;;;;;;;;5060241;28;20676;-52
2022/07/01 03:18:46;;;;;;;19.65;17.85;;;;;;;;;;5059264;28;20751;-52
2022/07/01 03:21:14;;;;;;;20.85;18.83;;;;;;;;;;5062679;28;20286;-54
2022/07/01 03:23:40;;;;;;;21.80;19.70;;;;;;;;;;5063925;28;20247;-52
2022/07/01 03:26:06;;;;;;;19.35;17.55;;;;;;;;;;5061168;28;20259;-52
2022/07/01 03:28:34;;;;;;;20.55;18.45;;;;;;;;;;5055747;28;20249;-52
2022/07/01 03:31:00;;;;;;;21.98;19.55;;;;;;;;;;5066517;28;20356;-51
2022/07/01 03:33:26;;;;;;;19.85;17.95;;;;;;;;;;5056542;28;20231;-51
2022/07/01 03:35:53;;;;;;;20.48;18.50;;;;;;;;;;5059922;28;20239;-53
2022/07/01 03:38:20;;;;;;;21.83;19.83;;;;;;;;;;5053201;28;20234;-52
2022/07/01 03:40:47;;;;;;;19.77;17.98;;;;;;;;;;5055029;28;20724;-52
2022/07/01 03:43:13;;;;;;;21.25;19.27;;;;;;;;;;5060440;28;20238;-53
2022/07/01 03:45:40;;;;;;;20.83;18.83;;;;;;;;;;5065242;28;20239;-51
2022/07/01 03:48:06;;;;;;;19.38;17.55;;;;;;;;;;5063396;28;20235;-53
2022/07/01 03:50:33;;;;;;;19.60;17.50;;;;;;;;;;5053067;28;20232;-51
2022/07/01 03:55:44;;;;;;;21.70;19.52;;;;;;;;;;5057500;28;20594;-52
2022/07/01 03:58:10;;;;;;;20.90;19.08;;;;;;;;;;5049527;28;20224;-53
2022/07/01 04:00:37;;;;;;;21.70;19.65;;;;;;;;;;5052714;28;20227;-51
2022/07/01 04:03:04;;;;;;;21.80;19.83;;;;;;;;;;5053959;28;20235;-52
2022/07/01 04:05:32;;;;;;;21.02;19.13;;;;;;;;;;5066465;28;20746;-52
2022/07/01 04:07:59;;;;;;;23.50;21.20;;;;;;;;;;5061074;28;20235;-52
2022/07/01 04:10:25;;;;;;;21.02;18.95;;;;;;;;;;5056709;28;20242;-55
2022/07/01 04:12:53;;;;;;;20.23;18.33;;;;;;;;;;5056481;28;20241;-52
2022/07/01 04:15:19;;;;;;;19.75;17.88;;;;;;;;;;5071533;28;20318;-53
2022/07/01 04:17:45;;;;;;;22.98;20.70;;;;;;;;;;5051938;28;20235;-51
2022/07/01 04:20:12;;;;;;;20.30;18.40;;;;;;;;;;5064529;28;20243;-52
2022/07/01 04:22:37;;;;;;;22.17;19.83;;;;;;;;;;5053667;28;20301;-52
2022/07/01 04:25:04;;;;;;;21.20;18.90;;;;;;;;;;5062368;28;20694;-52
2022/07/01 04:27:31;;;;;;;23.40;21.02;;;;;;;;;;5054722;28;20232;-52
2022/07/01 04:29:59;;;;;;;20.92;18.83;;;;;;;;;;5056636;28;20655;-52
2022/07/01 04:32:25;;;;;;;19.83;18.02;;;;;;;;;;5057016;28;20228;-52
2022/07/01 04:34:52;;;;;;;21.88;19.58;;;;;;;;;;5061904;28;20696;-52
2022/07/01 04:37:18;;;;;;;22.05;19.85;;;;;;;;;;5063351;28;20242;-50
2022/07/01 04:39:45;;;;;;;20.80;18.58;;;;;;;;;;5060050;28;20247;-52
2022/07/01 04:42:11;;;;;;;22.30;20.02;;;;;;;;;;5052363;28;20243;-53
2022/07/01 04:44:38;;;;;;;21.35;19.25;;;;;;;;;;5058622;28;20914;-51
2022/07/01 04:47:06;;;;;;;21.05;18.92;;;;;;;;;;5061551;28;20239;-52
2022/07/01 04:49:32;;;;;;;23.05;20.80;;;;;;;;;;5059602;28;20246;-51
2022/07/01 04:51:58;;;;;;;21.55;19.50;;;;;;;;;;5056275;28;20242;-51
2022/07/01 04:54:25;;;;;;;21.83;19.75;;;;;;;;;;5060424;28;20239;-53
2022/07/01 04:56:52;;;;;;;22.00;19.90;;;;;;;;;;5051876;28;20297;-53
2022/07/01 04:59:19;;;;;;;22.02;19.83;;;;;;;;;;5057263;28;20231;-53
2022/07/01 05:01:48;;;;;;;21.42;19.23;;;;;;;;;;5048204;28;20235;-52
2022/07/01 05:04:18;;;;;;;20.35;18.42;;;;;;;;;;5063185;28;20241;-51
2022/07/01 05:06:44;;;;;;;21.15;19.15;;;;;;;;;;5053872;28;20322;-51
2022/07/01 05:09:11;;;;;;;22.30;19.77;;;;;;;;;;5065385;28;20227;-54
2022/07/01 05:11:37;;;;;;;21.70;19.60;;;;;;;;;;5062370;28;20235;-53
2022/07/01 05:14:03;;;;;;;28.15;19.63;;;;;;;;;;5060036;28;20725;-53
2022/07/01 05:16:30;;;;;;;20.45;18.55;;;;;;;;;;5048595;28;20254;-52
2022/07/01 05:24:27;;;;;;;23.25;20.67;;;;;;;;;;5061720;28;20284;-51
2022/07/01 05:26:53;;;;;;;19.48;17.55;;;;;;;;;;5059335;28;20227;-51
2022/07/01 05:29:20;;;;;;;19.15;17.25;;;;;;;;;;5058014;28;20254;-54
2022/07/01 05:31:46;;;;;;;18.17;16.58;;;;;;;;;;5054820;28;20753;-51
2022/07/01 05:34:12;;;;;;;17.77;15.98;;;;;;;;;;5048665;28;20239;-52
2022/07/01 05:36:39;;;;;;;18.05;16.30;;;;;;;;;;5071426;28;20231;-53
2022/07/01 05:39:06;;;;;;;18.08;16.40;;;;;;;;;;5045013;28;20228;-52
2022/07/01 05:41:34;;;;;;;17.98;16.35;;;;;;;;;;5055331;28;20778;-53
2022/07/01 05:44:00;;;;;;;18.67;16.98;;;;;;;;;;5048902;28;20515;-52
2022/07/01 05:46:27;;;;;;;18.88;17.13;;;;;;;;;;5062412;28;20684;-52
2022/07/01 05:48:53;;;;;;;16.73;15.23;;;;;;;;;;5055730;28;20235;-51
2022/07/01 05:51:19;;;;;;;20.05;18.15;;;;;;;;;;5055558;28;20320;-51
2022/07/01 05:53:47;;;;;;;19.33;17.40;;;;;;;;;;5060166;28;20321;-51
2022/07/01 05:56:15;;;;;;;19.20;17.45;;;;;;;;;;5059279;28;20637;-52
2022/07/01 05:58:41;;;;;;;19.08;17.23;;;;;;;;;;5063913;28;20281;-52
2022/07/01 06:01:08;;;;;;;20.27;18.08;;;;;;;;;;5059520;28;20238;-54
2022/07/01 06:03:34;;;;;;;19.70;17.48;;;;;;;;;;5058479;28;20236;-53
2022/07/01 06:06:00;;;;;;;19.85;17.98;;;;;;;;;;5050003;28;20249;-52
2022/07/01 06:08:27;;;;;;;20.10;18.30;;;;;;;;;;5053249;28;20245;-53
2022/07/01 06:10:53;;;;;;;21.27;17.75;;;;;;;;;;5058149;28;20255;-52
2022/07/01 06:13:20;;;;;;;20.45;18.40;;;;;;;;;;5050702;28;20575;-51
2022/07/01 06:15:47;;;;;;;19.25;17.00;;;;;;;;;;5053021;28;20740;-52
2022/07/01 06:18:13;;;;;;;21.33;19.00;;;;;;;;;;5060243;28;20235;-53
2022/07/01 06:20:39;;;;;;;18.05;16.45;;;;;;;;;;5056333;28;20248;-52
2022/07/01 06:23:06;;;;;;;21.15;19.30;;;;;;;;;;5061152;28;20235;-52
2022/07/01 06:25:32;;;;;;;18.92;17.25;;;;;;;;;;5061330;28;20222;-51
2022/07/01 06:27:58;;;;;;;18.52;16.95;;;;;;;;;;5057524;28;20235;-54
2022/07/01 06:30:26;;;;;;;19.88;18.02;;;;;;;;;;5050072;28;20258;-52
2022/07/01 06:32:52;;;;;;;20.88;18.88;;;;;;;;;;5052094;28;20235;-52
2022/07/01 06:35:19;;;;;;;19.13;17.33;;;;;;;;;;5058156;28;20234;-53
2022/07/01 06:37:45;;;;;;;21.10;18.92;;;;;;;;;;5060017;28;20235;-51
2022/07/01 06:40:12;;;;;;;22.00;19.98;;;;;;;;;;5056123;28;20231;-51
2022/07/01 06:42:38;;;;;;;20.98;19.08;;;;;;;;;;5055617;28;20263;-53
2022/07/01 06:45:05;;;;;;;20.75;18.80;;;;;;;;;;5052126;28;20239;-52
2022/07/01 06:47:32;;;;;;;20.48;18.52;;;;;;;;;;5058997;28;20709;-52
2022/07/01 06:49:59;;;;;;;20.58;18.48;;;;;;;;;;5062953;28;20226;-52
2022/07/01 06:52:25;;;;;;;21.33;19.33;;;;;;;;;;5053258;28;20272;-53
2022/07/01 06:54:51;;;;;;;19.92;18.13;;;;;;;;;;5046427;28;20228;-52
2022/07/01 06:57:18;;;;;;;20.27;17.20;;;;;;;;;;5051429;28;20454;-52
2022/07/01 06:59:44;;;;;;;20.88;18.17;;;;;;;;;;5066382;28;20262;-61
2022/07/01 07:02:11;;;;;;;19.15;17.27;;;;;;;;;;5064522;28;20234;-51
2022/07/01 07:04:38;;;;;;;18.52;16.77;;;;;;;;;;5055530;28;20242;-53
2022/07/01 07:07:05;;;;;;;18.92;17.17;;;;;;;;;;5059021;28;20231;-52
2022/07/01 07:09:31;;;;;;;19.10;16.88;;;;;;;;;;5053039;28;20715;-53
2022/07/01 07:11:57;;;;;;;16.75;15.43;;;;;;;;;;5060876;28;20223;-53
2022/07/01 07:14:24;;;;;;;17.17;15.43;;;;;;;;;;5052877;28;20236;-53
2022/07/01 07:16:53;;;;;;;16.00;14.70;;;;;;;;;;5060799;28;20242;-52
2022/07/01 07:19:19;;;;;;;15.50;13.98;;;;;;;;;;5054062;28;20236;-52
2022/07/01 07:21:47;;;;;;;13.98;12.77;;;;;;;;;;5055798;28;20235;-51
2022/07/01 07:24:13;;;;;;;14.95;13.65;;;;;;;;;;5053728;28;20239;-54
2022/07/01 07:26:40;;;;;;;14.55;13.18;;;;;;;;;;5061357;28;20232;-52
2022/07/01 07:29:06;;;;;;;13.52;12.43;;;;;;;;;;5055651;28;20239;-52
2022/07/01 07:31:33;;;;;;;12.75;11.73;;;;;;;;;;5048742;28;20247;-53
2022/07/01 07:33:59;;;;;;;15.55;12.23;;;;;;;;;;5060397;28;20348;-52
2022/07/01 07:36:25;;;;;;;11.10;10.20;;;;;;;;;;5051834;28;20655;-52
2022/07/01 07:38:53;;;;;;;11.25;10.25;;;;;;;;;;5048182;28;20232;-55
2022/07/01 07:41:19;;;;;;;11.45;10.48;;;;;;;;;;5054419;28;20254;-53
2022/07/01 07:43:47;;;;;;;11.65;10.45;;;;;;;;;;5056924;28;20613;-51
2022/07/01 07:46:14;;;;;;;11.27;10.27;;;;;;;;;;5052174;28;20604;-52
2022/07/01 07:48:41;;;;;;;14.05;10.50;;;;;;;;;;5062739;28;20338;-52
2022/07/01 07:51:08;;;;;;;12.27;11.07;;;;;;;;;;5055432;28;20605;-53
2022/07/01 07:53:34;;;;;;;11.98;10.63;;;;;;;;;;5060350;28;20615;-51
2022/07/01 07:56:01;;;;;;;12.60;10.80;;;;;;;;;;5048908;28;20238;-53
2022/07/01 07:58:28;;;;;;;13.50;11.70;;;;;;;;;;5052099;28;20235;-53
2022/07/01 08:00:54;;;;;;;11.90;11.00;;;;;;;;;;5043383;28;20762;-52
2022/07/01 08:03:21;;;;;;;11.50;10.55;;;;;;;;;;5049901;28;20231;-52
2022/07/01 08:05:47;;;;;;;12.48;11.07;;;;;;;;;;5047042;28;20615;-54
2022/07/01 08:08:13;;;;;;;12.25;11.00;;;;;;;;;;5054650;28;20868;-52
2022/07/01 08:10:40;;;;;;;13.00;11.32;;;;;;;;;;5049630;28;20238;-52
2022/07/01 08:13:07;;;;;;;12.02;10.85;;;;;;;;;;5069522;28;20730;-52
2022/07/01 08:15:34;;;;;;;11.32;10.20;;;;;;;;;;5063170;28;20223;-52
2022/07/01 08:18:00;;;;;;;12.00;11.00;;;;;;;;;;5052008;28;20265;-52
2022/07/01 08:20:26;;;;;;;11.40;10.40;;;;;;;;;;5048938;28;20228;-55
2022/07/01 08:22:53;;;;;;;13.63;11.82;;;;;;;;;;5063019;28;20230;-51
2022/07/01 08:25:19;;;;;;;11.52;10.50;;;;;;;;;;5054575;28;20300;-52
2022/07/01 08:27:45;;;;;;;13.25;11.88;;;;;;;;;;5062861;28;20709;-52
2022/07/01 08:30:14;;;;;;;13.93;12.60;;;;;;;;;;5047393;28;20236;-52
2022/07/01 08:32:40;;;;;;;12.73;11.63;;;;;;;;;;5055143;28;20231;-55
2022/07/01 08:35:06;;;;;;;12.57;11.63;;;;;;;;;;5053814;28;20231;-51
2022/07/01 08:37:33;;;;;;;13.02;11.90;;;;;;;;;;5045548;28;20235;-51
2022/07/01 08:40:00;;;;;;;13.30;12.07;;;;;;;;;;5054040;28;21394;-52
2022/07/01 08:42:26;;;;;;;14.57;13.20;;;;;;;;;;5060269;28;20227;-52
2022/07/01 08:44:53;;;;;;;13.55;12.40;;;;;;;;;;5052006;28;20251;-52
2022/07/01 08:47:20;;;;;;;13.73;11.48;;;;;;;;;;5055403;28;20318;-53
2022/07/01 08:49:47;;;;;;;15.38;12.65;;;;;;;;;;5054920;28;20232;-51
2022/07/01 08:52:13;;;;;;;12.68;11.57;;;;;;;;;;5050906;28;20245;-52
2022/07/01 08:54:40;;;;;;;13.27;11.98;;;;;;;;;;5051809;28;20461;-52
2022/07/01 08:57:07;;;;;;;12.18;11.05;;;;;;;;;;5044062;28;20230;-53
2022/07/01 08:59:34;;;;;;;11.05;10.15;;;;;;;;;;5054802;28;20231;-54
2022/07/01 09:02:00;;;;;;;9.98;9.00;;;;;;;;;;5053575;28;20249;-50
2022/07/01 09:04:29;;;;;;;9.45;8.65;;;;;;;;;;5056218;28;20238;-60
2022/07/01 09:07:02;;;;;;;8.35;7.65;;;;;;;;;;5059783;28;20235;-52
2022/07/01 09:09:29;;;;;;;9.50;7.72;;;;;;;;;;5059325;28;20231;-51
2022/07/01 09:11:57;;;;;;;8.20;7.53;;;;;;;;;;5061799;28;20231;-53
2022/07/01 09:14:24;;;;;;;9.07;8.23;;;;;;;;;;5060377;28;20250;-55
2022/07/01 09:16:51;;;;;;;9.63;8.63;;;;;;;;;;5058256;28;20243;-51
2022/07/01 09:19:19;;;;;;;4.60;4.05;;;;;;;;;;5058242;28;20681;-51
2022/07/01 09:21:50;;;;;;;7.95;4.00;;;;;;;;;;5054673;28;20565;-51
2022/07/01 09:24:24;;;;;;;4.55;3.00;;;;;;;;;;5047586;28;20271;-52
2022/07/01 09:26:54;;;;;;;4.10;2.72;;;;;;;;;;5056633;28;20223;-52
2022/07/01 09:29:21;;;;;;;7.28;2.80;;;;;;;;;;5053776;28;20232;-52
2022/07/01 09:31:49;;;;;;;2.45;2.15;;;;;;;;;;5058968;28;20265;-52
2022/07/01 09:34:15;;;;;;;3.35;2.85;;;;;;;;;;5054641;28;20790;-54
2022/07/01 09:36:51;;;;;;;2.42;2.22;;;;;;;;;;5051518;28;20227;-53
2022/07/01 09:39:19;;;;;;;7.75;1.77;;;;;;;;;;5063380;28;20234;-51
2022/07/01 09:41:45;;;;;;;1.58;1.17;;;;;;;;;;5065118;28;20242;-51
2022/07/01 09:44:12;;;;;;;3.78;1.58;;;;;;;;;;5051008;28;20242;-53
2022/07/01 09:46:38;;;;;;;1.73;1.63;;;;;;;;;;5059993;28;20234;-51
2022/07/01 09:49:04;;;;;;;1.50;1.30;;;;;;;;;;5049412;28;20713;-53
2022/07/01 09:51:33;;;;;;;1.38;1.27;;;;;;;;;;5057171;28;20223;-53
2022/07/01 09:53:59;;;;;;;2.10;1.75;;;;;;;;;;5060439;28;20228;-52
2022/07/01 09:56:27;;;;;;;2.30;1.52;;;;;;;;;;5059020;28;20602;-52
2022/07/01 09:58:53;;;;;;;5.15;4.75;;;;;;;;;;5058089;28;20219;-52
2022/07/01 10:01:20;;;;;;;1.70;1.60;;;;;;;;;;5049218;28;20228;-52
2022/07/01 10:03:47;;;;;;;1.88;1.77;;;;;;;;;;5049064;28;20262;-54
2022/07/01 10:06:31;;;;;;;2.55;1.63;;;;;;;;;;5055520;28;20712;-52
2022/07/01 10:09:03;;;;;;;2.28;2.03;;;;;;;;;;5045293;28;20245;-50
2022/07/01 10:11:49;;;;;;;1.55;1.45;;;;;;;;;;5053319;28;20228;-52
2022/07/01 10:14:15;;;;;;;1.75;1.65;;;;;;;;;;5067486;28;20236;-53
2022/07/01 10:16:42;;;;;;;2.15;1.95;;;;;;;;;;5050135;28;20246;-56
2022/07/01 10:19:23;;;;;;;2.83;1.70;;;;;;;;;;5049341;28;20318;-52
2022/07/01 10:21:51;;;;;;;2.92;1.50;;;;;;;;;;5049165;28;20220;-53
2022/07/01 10:24:18;;;;;;;1.60;1.50;;;;;;;;;;5059654;28;20231;-52
2022/07/01 10:26:46;;;;;;;1.77;1.67;;;;;;;;;;5056458;28;20239;-53
2022/07/01 10:29:27;;;;;;;1.70;1.60;;;;;;;;;;5048475;28;20239;-53
2022/07/01 10:31:53;;;;;;;2.95;2.00;;;;;;;;;;5056946;28;20256;-53
2022/07/01 10:34:20;;;;;;;1.98;1.88;;;;;;;;;;5058767;28;20718;-51
2022/07/01 10:37:01;;;;;;;2.13;1.92;;;;;;;;;;5054137;28;20706;-52
2022/07/01 10:39:27;;;;;;;1.85;1.75;;;;;;;;;;5055583;28;20226;-53
2022/07/01 10:41:59;;;;;;;1.77;1.67;;;;;;;;;;5046156;28;20276;-53
2022/07/01 10:44:26;;;;;;;1.88;1.77;;;;;;;;;;5050931;28;20725;-52
2022/07/01 10:46:57;;;;;;;2.30;1.83;;;;;;;;;;5057476;28;20238;-51
2022/07/01 10:49:38;;;;;;;1.20;1.20;;;;;;;;;;5047469;28;20240;-52
2022/07/01 10:52:06;;;;;;;1.48;1.23;;;;;;;;;;5055436;28;20239;-52
2022/07/01 10:54:49;;;;;;;2.70;1.10;;;;;;;;;;5059091;28;20239;-51
2022/07/01 10:57:26;;;;;;;2.20;0.85;;;;;;;;;;5060134;28;20254;-52
2022/07/01 10:59:53;;;;;;;0.60;0.60;;;;;;;;;;5049848;28;20240;-52
2022/07/01 11:02:20;;;;;;;1.40;0.70;;;;;;;;;;5045074;28;20611;-52
2022/07/01 11:04:48;;;;;;;1.95;1.02;;;;;;;;;;5053952;28;20235;-52
2022/07/01 11:07:14;;;;;;;2.03;1.00;;;;;;;;;;5044704;28;20220;-52
2022/07/01 11:09:41;;;;;;;1.13;0.85;;;;;;;;;;5055564;28;20233;-53
2022/07/01 11:12:08;;;;;;;1.08;0.75;;;;;;;;;;5060983;28;20231;-52
2022/07/01 11:14:36;;;;;;;1.30;0.77;;;;;;;;;;5069586;28;20234;-51
2022/07/01 11:17:02;;;;;;;0.40;0.40;;;;;;;;;;5053254;28;20359;-58
2022/07/01 11:19:29;;;;;;;2.00;1.17;;;;;;;;;;5046501;28;20228;-53
2022/07/01 11:21:58;;;;;;;1.58;1.13;;;;;;;;;;5062992;28;20239;-51
2022/07/01 11:24:25;;;;;;;1.00;1.00;;;;;;;;;;5055528;28;20240;-52
2022/07/01 11:26:52;;;;;;;1.98;1.00;;;;;;;;;;5057133;28;20235;-53
2022/07/01 11:29:25;;;;;;;2.67;1.30;;;;;;;;;;5053518;28;20307;-52
2022/07/01 11:31:53;;;;;;;1.42;1.33;;;;;;;;;;5059243;28;20334;-53
2022/07/01 11:34:20;;;;;;;3.38;1.15;;;;;;;;;;5059546;28;20805;-52
2022/07/01 11:39:33;;;;;;;1.60;1.50;;;;;;;;;;5058000;28;20292;-51
2022/07/01 11:42:00;;;;;;;1.90;1.77;;;;;;;;;;5050927;28;20251;-55
2022/07/01 11:44:33;;;;;;;7.68;2.35;;;;;;;;;;5059464;28;20235;-53
2022/07/01 11:47:01;;;;;;;15.88;4.35;;;;;;;;;;5059340;28;20705;-58
2022/07/01 11:49:28;;;;;;;4.80;2.75;;;;;;;;;;5055503;28;20239;-55
2022/07/01 11:51:55;;;;;;;5.63;2.22;;;;;;;;;;5057461;28;20228;-54
2022/07/01 11:54:22;;;;;;;3.40;2.53;;;;;;;;;;5056617;28;20239;-52
2022/07/01 11:56:48;;;;;;;2.53;2.33;;;;;;;;;;5052095;28;20258;-52
2022/07/01 11:59:15;;;;;;;2.85;2.67;;;;;;;;;;5055612;28;20232;-53
2022/07/01 12:01:41;;;;;;;3.40;2.17;;;;;;;;;;5057901;28;20923;-53
2022/07/01 12:04:09;;;;;;;4.63;3.53;;;;;;;;;;5048711;28;20323;-53
2022/07/01 12:06:38;;;;;;;3.33;3.05;;;;;;;;;;5049616;28;20236;-54
2022/07/01 12:09:04;;;;;;;4.05;3.75;;;;;;;;;;5050679;28;20311;-52
2022/07/01 12:11:30;;;;;;;4.38;4.07;;;;;;;;;;5058225;28;20231;-51
2022/07/01 12:13:57;;;;;;;5.63;4.93;;;;;;;;;;5049136;28;20224;-52
2022/07/01 12:16:23;;;;;;;5.35;4.85;;;;;;;;;;5042579;28;20236;-53
2022/07/01 12:18:54;;;;;;;5.38;4.88;;;;;;;;;;5053574;28;20236;-53
2022/07/01 12:21:22;;;;;;;5.68;5.25;;;;;;;;;;5061739;28;20254;-54
2022/07/01 12:24:08;;;;;;;6.85;6.15;;;;;;;;;;5047328;28;20255;-53
2022/07/01 12:26:34;;;;;;;6.80;6.10;;;;;;;;;;5054701;28;20261;-53
2022/07/01 12:29:01;;;;;;;5.93;5.43;;;;;;;;;;5056969;28;20430;-53
2022/07/01 12:31:27;;;;;;;5.45;4.95;;;;;;;;;;5049684;28;20228;-54
2022/07/01 12:33:53;;;;;;;5.72;5.22;;;;;;;;;;5056497;28;20250;-55
2022/07/01 12:36:19;;;;;;;5.43;5.00;;;;;;;;;;5037555;28;20232;-54
2022/07/01 12:39:00;;;;;;;4.95;4.55;;;;;;;;;;5047290;28;20726;-55
2022/07/01 12:41:29;;;;;;;5.80;5.30;;;;;;;;;;5052007;28;20970;-55
2022/07/01 12:43:56;;;;;;;5.03;4.53;;;;;;;;;;5057626;28;20242;-55
2022/07/01 12:46:27;;;;;;;6.00;5.38;;;;;;;;;;5056289;28;20253;-55
2022/07/01 12:48:53;;;;;;;5.47;5.03;;;;;;;;;;5052621;28;21057;-56
2022/07/01 12:51:20;;;;;;;5.70;5.15;;;;;;;;;;5060381;28;20243;-56
2022/07/01 12:53:47;;;;;;;5.93;4.88;;;;;;;;;;5040557;28;20247;-56
2022/07/01 12:56:22;;;;;;;5.38;4.88;;;;;;;;;;5060979;28;20242;-57
2022/07/01 12:58:49;;;;;;;4.57;4.28;;;;;;;;;;5052793;28;20245;-56
2022/07/01 13:01:15;;;;;;;4.70;4.30;;;;;;;;;;5064651;28;20226;-54
2022/07/01 13:03:41;;;;;;;5.53;5.13;;;;;;;;;;5055414;28;20432;-55
2022/07/01 13:06:08;;;;;;;6.13;5.00;;;;;;;;;;5058547;28;20227;-54
2022/07/01 13:08:34;;;;;;;5.35;4.93;;;;;;;;;;5044762;28;20244;-55
2022/07/01 13:11:02;;;;;;;6.93;6.03;;;;;;;;;;5051616;28;20234;-56
2022/07/01 13:13:28;;;;;;;6.20;5.63;;;;;;;;;;5043000;28;20211;-54
2022/07/01 13:15:55;;;;;;;5.28;4.88;;;;;;;;;;5042736;28;20235;-54
2022/07/01 13:18:22;;;;;;;5.38;4.85;;;;;;;;;;5045973;28;20290;-53
2022/07/01 13:20:48;;;;;;;4.70;4.30;;;;;;;;;;5053261;28;20243;-54
2022/07/01 13:23:15;;;;;;;4.55;4.20;;;;;;;;;;5045294;28;20658;-55
2022/07/01 13:25:41;;;;;;;5.25;4.85;;;;;;;;;;5054764;28;20251;-55
2022/07/01 13:28:09;;;;;;;4.55;4.22;;;;;;;;;;5059323;28;20235;-54
2022/07/01 13:30:36;;;;;;;5.15;4.65;;;;;;;;;;5056849;28;20239;-54
2022/07/01 13:33:02;;;;;;;5.90;4.63;;;;;;;;;;5048900;28;21506;-54
2022/07/01 13:35:29;;;;;;;5.35;4.13;;;;;;;;;;5059813;28;20235;-53
2022/07/01 13:37:55;;;;;;;5.40;5.00;;;;;;;;;;5051173;28;20447;-55
2022/07/01 13:40:22;;;;;;;4.80;4.32;;;;;;;;;;5053025;28;20238;-53
2022/07/01 13:42:48;;;;;;;3.97;3.67;;;;;;;;;;5044379;28;20259;-54
2022/07/01 13:45:16;;;;;;;4.10;3.80;;;;;;;;;;5053579;28;20262;-53
2022/07/01 13:47:43;;;;;;;4.80;4.40;;;;;;;;;;5050067;28;20234;-53
2022/07/01 13:50:10;;;;;;;4.15;3.85;;;;;;;;;;5052641;28;20240;-52
2022/07/01 13:52:36;;;;;;;3.92;3.63;;;;;;;;;;5051281;28;20236;-54
2022/07/01 13:55:03;;;;;;;4.72;4.40;;;;;;;;;;5052671;28;20246;-53
2022/07/01 13:57:29;;;;;;;4.95;4.00;;;;;;;;;;5052405;28;20230;-53
2022/07/01 13:59:56;;;;;;;4.22;3.60;;;;;;;;;;5051979;28;20231;-54
2022/07/01 14:02:24;;;;;;;3.60;3.33;;;;;;;;;;5051913;28;20242;-53
2022/07/01 14:04:50;;;;;;;4.05;3.75;;;;;;;;;;5051471;28;20228;-53
2022/07/01 14:07:17;;;;;;;3.67;3.30;;;;;;;;;;5050748;28;20234;-54
2022/07/01 14:09:44;;;;;;;2.90;2.80;;;;;;;;;;5055817;28;20739;-54
2022/07/01 14:12:11;;;;;;;3.15;2.88;;;;;;;;;;5041333;28;20228;-53
2022/07/01 14:14:37;;;;;;;3.50;2.83;;;;;;;;;;5049729;28;20249;-52
2022/07/01 14:17:04;;;;;;;2.92;2.72;;;;;;;;;;5053423;28;20243;-51
2022/07/01 14:19:31;;;;;;;2.35;2.22;;;;;;;;;;5053147;28;20247;-52
2022/07/01 14:21:59;;;;;;;2.50;2.30;;;;;;;;;;5063396;28;20223;-54
2022/07/01 14:24:25;;;;;;;2.55;2.45;;;;;;;;;;5061015;28;20243;-52
2022/07/01 14:26:52;;;;;;;2.95;2.75;;;;;;;;;;5058256;28;20232;-54
2022/07/01 14:29:18;;;;;;;3.28;3.08;;;;;;;;;;5054753;28;20510;-52
2022/07/01 14:31:46;;;;;;;2.60;2.40;;;;;;;;;;5051479;28;20320;-52
2022/07/01 14:34:12;;;;;;;2.20;2.10;;;;;;;;;;5053120;28;20317;-52
2022/07/01 14:36:40;;;;;;;2.78;2.58;;;;;;;;;;5050463;28;20235;-53
2022/07/01 14:39:07;;;;;;;3.13;2.75;;;;;;;;;;5060962;28;20227;-54